NCAR-RAP Real-Time Weather Data

Output produced by METARs form (20 January 2018  03:38 UTC)
found at http://weather.rap.ucar.edu/surface/
 
KSDY 200256Z AUTO 00000KT 10SM BKN120 01/M01 A2971 RMK AO2 SLP084 T00061011 51009 FZRANO
KSDY 200156Z AUTO 23008KT 10SM CLR 02/M01 A2970 RMK AO2 SLP079 T00221011 FZRANO
 
KN60 200252Z AUTO 29009KT 00/M04 A2965 RMK AO1 SLP060 T00001039 51013
KN60 200152Z AUTO 29012KT 01/M03 A2965 RMK AO1 SLP058 T00111033
 
KDIK 200256Z AUTO 27013KT 10SM CLR 01/M02 A2968 RMK AO2 SLP072 T00061022 51015
KDIK 200156Z AUTO 26014KT 10SM BKN110 02/M01 A2967 RMK AO2 SLP069 T00171011
 
KBIS 200252Z 31004KT 10SM CLR 03/M01 A2970 RMK AO2 SLP079 T00281006 51019
KBIS 200152Z 28008KT 10SM CLR 03/M01 A2969 RMK AO2 SLP073 T00281006
 
KHEI 200253Z AUTO 30009KT 10SM OVC050 01/M01 A2973 RMK AO2 SLP094 T00111006 50010
KHEI 200153Z AUTO 28011KT 10SM OVC055 01/M01 A2974 RMK AO2 SLP095 T00111006